NCAR-RAP Real-Time Weather Data

Output produced by METARs form (01 December 2020  18:31 UTC)
found at http://weather.rap.ucar.edu/surface/
 
KMHT 011653Z 16010KT 10SM SCT023 BKN060 OVC090 17/12 A2945 RMK AO2 SLP984 T01670117
KMHT 011553Z 18006KT 10SM BKN043 OVC150 17/12 A2947 RMK AO2 SLP990 T01670122
KMHT 011453Z 14009KT 10SM BKN044 OVC150 17/13 A2950 RMK AO2 SLP001 T01670133 58007
KMHT 011353Z 14007KT 10SM SCT055 BKN150 BKN250 16/13 A2951 RMK AO2 SLP006 T01610133
KMHT 011253Z 14008KT 8SM FEW017 SCT045 BKN250 16/13 A2952 RMK AO2 SLP009 60001 T01560133
KMHT 011218Z 15009KT 8SM SCT017 BKN045 16/13 A2952 RMK AO2 60001 T01610133
KMHT 011153Z 16009KT 9SM BKN017 16/13 A2952 RMK AO2 SLP008 60001 T01610133 10178 20161 53002
KMHT 011053Z 16007KT 10SM BKN018 OVC027 17/14 A2950 RMK AO2 SLP002 T01670139
KMHT 010953Z 17009KT 9SM SCT017 OVC027 17/14 A2951 RMK AO2 SLP006 T01720144
KMHT 010853Z 15010KT 10SM FEW015 BKN023 BKN031 17/14 A2951 RMK AO2 RAB0757E11 SLP006 P0000 60001 T01720144 50005
KMHT 010753Z 17009KT 10SM BKN013 OVC017 17/15 A2952 RMK AO2 RAB09E37 SLP007 P0001 T01720150
KMHT 010751Z 16009KT 10SM FEW008 BKN013 OVC017 17/15 A2952 RMK AO2 RAB09E37 P0001
KMHT 010719Z 17010KT 7SM -RA SCT011 BKN025 OVC032 17/15 A2951 RMK AO2 RAB09 P0000 T01720150
KMHT 010653Z 16010KT 10SM OVC013 18/15 A2950 RMK AO2 RAE00 SLP003 P0000 T01780150
KMHT 010610Z 16010KT 10SM BKN013 BKN019 OVC036 18/16 A2950 RMK AO2 RAE00 P0000 T01780156
KMHT 010600Z 17011G21KT 10SM SCT013 BKN019 OVC036 18/16 A2950 RMK AO2 RAE00 P0000 T01780156
KMHT 010553Z 17014G26KT 8SM -RA BKN013 BKN030 OVC036 18/16 A2950 RMK AO2 PK WND 17026/0549 RAE03B19 SLP001 P0003 60042 T01780156 10178 20156 56003
KMHT 010453Z 16014KT 6SM -RA BR SCT009 BKN013 OVC032 17/15 A2950 RMK AO2 RAE42B51 SLP002 P0005 T01720150 401781011
KMHT 010449Z 16012KT 6SM BR BKN009 BKN013 OVC031 17/15 A2950 RMK AO2 RAE42 P0005
KMHT 010426Z 15011KT 2 1/2SM RA BR OVC014 17/15 A2950 RMK AO2 P0004 T01720150
KMHT 010353Z 16012G20KT 3SM -RA BR BKN014 OVC022 17/15 A2949 RMK AO2 SFC VIS 6 RAE25B46 SLP000 P0004 T01720150
KMHT 010253Z 15015KT 3SM RA BR FEW010 BKN016 OVC030 17/14 A2951 RMK AO2 PK WND 13030/0206 SLP005 P0017 60030 T01670144 58008